createdAt,value
2022-12-15T00:00:34.502Z,17.40
2022-12-15T00:03:24.961Z,17.40
2022-12-15T00:06:12.833Z,17.40
2022-12-15T00:09:00.041Z,17.40
2022-12-15T00:11:46.083Z,17.40
2022-12-15T00:14:32.799Z,17.40
2022-12-15T00:17:19.139Z,17.50
2022-12-15T00:20:04.920Z,17.50
2022-12-15T00:22:53.160Z,17.50
2022-12-15T00:25:39.247Z,17.50
2022-12-15T00:28:25.463Z,17.50
2022-12-15T00:31:11.619Z,17.50
2022-12-15T00:33:57.611Z,17.50
2022-12-15T00:36:43.542Z,17.50
2022-12-15T00:39:13.718Z,17.50
2022-12-15T00:41:42.792Z,17.40
2022-12-15T00:44:15.766Z,17.40
2022-12-15T00:46:57.103Z,17.40
2022-12-15T00:49:44.409Z,17.20
2022-12-15T00:52:30.596Z,17.10
2022-12-15T00:55:18.276Z,17.00
2022-12-15T00:58:04.173Z,16.90
2022-12-15T01:00:51.475Z,16.80
2022-12-15T01:03:40.275Z,16.80
2022-12-15T01:06:28.117Z,16.70
2022-12-15T01:09:15.828Z,16.70
2022-12-15T01:12:03.923Z,16.70
2022-12-15T01:14:50.656Z,16.70
2022-12-15T01:17:38.092Z,16.70
2022-12-15T01:20:18.713Z,16.60
2022-12-15T01:22:47.832Z,16.60
2022-12-15T01:25:17.688Z,16.50
2022-12-15T01:27:48.852Z,16.50
2022-12-15T01:30:20.991Z,16.40
2022-12-15T01:32:50.803Z,16.30
2022-12-15T01:35:19.634Z,16.20
2022-12-15T01:37:50.247Z,16.10
2022-12-15T01:40:38.464Z,16.00
2022-12-15T01:43:14.481Z,16.00
2022-12-15T01:45:55.852Z,15.90
2022-12-15T01:48:32.331Z,15.90
2022-12-15T01:51:07.020Z,15.80
2022-12-15T01:53:40.862Z,15.80
2022-12-15T01:56:11.072Z,15.70
2022-12-15T01:58:45.020Z,15.60
2022-12-15T02:01:13.719Z,15.60
2022-12-15T02:03:44.572Z,15.60
2022-12-15T02:06:14.359Z,15.60
2022-12-15T02:08:47.571Z,15.60
2022-12-15T02:11:50.441Z,15.50
2022-12-15T02:14:38.338Z,15.50
2022-12-15T02:17:16.663Z,15.40
2022-12-15T02:20:09.098Z,15.50
2022-12-15T02:22:59.016Z,15.30
2022-12-15T02:25:46.148Z,15.30
2022-12-15T02:28:33.071Z,15.30
2022-12-15T02:31:24.735Z,15.40
2022-12-15T02:33:56.345Z,15.40
2022-12-15T02:36:29.960Z,15.40
2022-12-15T02:38:58.534Z,15.40
2022-12-15T02:41:38.995Z,15.30
2022-12-15T02:44:11.535Z,15.30
2022-12-15T02:46:55.918Z,15.30
2022-12-15T02:49:32.217Z,15.30
2022-12-15T02:52:12.066Z,15.30
2022-12-15T02:54:59.161Z,15.30
2022-12-15T02:57:37.395Z,15.30
2022-12-15T03:00:10.648Z,15.30
2022-12-15T03:02:43.757Z,15.20
2022-12-15T03:05:14.678Z,15.20
2022-12-15T03:07:43.979Z,15.20
2022-12-15T03:10:14.866Z,15.20
2022-12-15T03:12:43.473Z,15.30
2022-12-15T03:15:13.332Z,15.20
2022-12-15T03:17:43.461Z,15.10
2022-12-15T03:20:12.891Z,15.20
2022-12-15T03:22:41.763Z,15.20
2022-12-15T03:25:10.789Z,15.20
2022-12-15T03:27:39.439Z,15.30
2022-12-15T03:30:09.530Z,15.30
2022-12-15T03:32:38.530Z,15.30
2022-12-15T03:35:10.039Z,15.30
2022-12-15T03:37:38.697Z,15.20
2022-12-15T03:40:08.647Z,15.20
2022-12-15T03:42:49.558Z,15.10
2022-12-15T03:45:19.711Z,15.10
2022-12-15T03:47:48.979Z,15.20
2022-12-15T03:50:20.920Z,15.20
2022-12-15T03:52:53.424Z,15.10
2022-12-15T03:55:22.970Z,15.10
2022-12-15T03:57:52.281Z,15.10
2022-12-15T04:00:23.162Z,15.00
2022-12-15T04:02:52.662Z,15.00
2022-12-15T04:05:25.887Z,15.10
2022-12-15T04:07:56.276Z,15.10
2022-12-15T04:10:31.914Z,15.10
2022-12-15T04:13:04.798Z,15.10
2022-12-15T04:15:34.122Z,15.10
2022-12-15T04:18:03.368Z,15.10
2022-12-15T04:20:34.377Z,15.10
2022-12-15T04:23:03.165Z,15.10
2022-12-15T04:25:49.285Z,15.00
2022-12-15T04:28:35.610Z,15.10
2022-12-15T04:31:26.705Z,15.10
2022-12-15T04:34:17.966Z,15.10
2022-12-15T04:37:07.961Z,15.00
2022-12-15T04:39:54.864Z,15.00
2022-12-15T04:42:41.192Z,15.00
2022-12-15T04:45:29.466Z,15.00
2022-12-15T04:48:15.833Z,15.00
2022-12-15T04:51:01.816Z,15.00
2022-12-15T04:53:49.375Z,15.10
2022-12-15T04:56:35.824Z,15.00
2022-12-15T04:59:22.255Z,15.00
2022-12-15T05:02:08.474Z,15.10
2022-12-15T05:04:54.565Z,15.00
2022-12-15T05:07:43.796Z,15.00
2022-12-15T05:10:31.141Z,14.90
2022-12-15T05:13:23.604Z,14.90
2022-12-15T05:16:10.007Z,14.80
2022-12-15T05:18:56.196Z,14.80
2022-12-15T05:21:42.778Z,14.90
2022-12-15T05:24:29.692Z,14.90
2022-12-15T05:27:17.127Z,15.00
2022-12-15T05:30:03.262Z,15.00
2022-12-15T05:32:33.601Z,15.00
2022-12-15T05:35:02.592Z,15.00
2022-12-15T05:37:31.320Z,14.90
2022-12-15T05:39:59.971Z,14.90
2022-12-15T05:42:29.941Z,14.90
2022-12-15T05:44:58.558Z,14.90
2022-12-15T05:47:28.054Z,14.90
2022-12-15T05:49:56.633Z,15.00
2022-12-15T05:52:25.226Z,15.00
2022-12-15T05:54:53.913Z,14.90
2022-12-15T05:57:22.583Z,14.90
2022-12-15T05:59:52.751Z,15.00
2022-12-15T06:02:21.595Z,14.90
2022-12-15T06:04:50.351Z,15.00
2022-12-15T06:07:19.890Z,15.00
2022-12-15T06:09:48.508Z,15.00
2022-12-15T06:12:17.214Z,15.00
2022-12-15T06:14:45.856Z,15.10
2022-12-15T06:17:20.719Z,15.10
2022-12-15T06:19:49.343Z,15.10
2022-12-15T06:22:18.046Z,15.10
2022-12-15T06:24:46.751Z,15.10
2022-12-15T06:27:15.364Z,15.10
2022-12-15T06:29:44.046Z,15.10
2022-12-15T06:32:12.763Z,15.10
2022-12-15T06:34:42.990Z,15.10
2022-12-15T06:37:11.757Z,15.10
2022-12-15T06:39:40.347Z,15.10
2022-12-15T06:42:08.957Z,15.10
2022-12-15T06:44:37.596Z,15.20
2022-12-15T06:47:06.755Z,15.20
2022-12-15T06:49:35.374Z,15.20
2022-12-15T06:52:05.617Z,15.30
2022-12-15T06:54:34.293Z,15.30
2022-12-15T06:57:03.066Z,15.40
2022-12-15T06:59:31.656Z,15.30
2022-12-15T07:02:00.872Z,15.40
2022-12-15T07:04:30.581Z,15.30
2022-12-15T07:06:59.215Z,15.40
2022-12-15T07:09:29.346Z,15.60
2022-12-15T07:11:58.102Z,15.60
2022-12-15T07:14:26.845Z,15.70
2022-12-15T07:16:55.528Z,15.70
2022-12-15T07:19:24.895Z,15.60
2022-12-15T07:21:53.719Z,15.60
2022-12-15T07:24:22.618Z,15.60
2022-12-15T07:26:52.706Z,15.60
2022-12-15T07:29:23.417Z,15.70
2022-12-15T07:31:52.615Z,15.70
2022-12-15T07:34:21.585Z,15.70
2022-12-15T07:36:52.482Z,15.60
2022-12-15T07:39:21.535Z,15.60
2022-12-15T07:41:51.390Z,15.60
2022-12-15T07:44:20.965Z,15.50
2022-12-15T07:46:49.512Z,15.50
2022-12-15T07:49:18.607Z,15.50
2022-12-15T07:51:47.143Z,15.50
2022-12-15T07:54:16.222Z,15.50
2022-12-15T07:56:45.054Z,15.60
2022-12-15T07:59:21.375Z,15.70
2022-12-15T08:01:49.989Z,15.80
2022-12-15T08:04:19.318Z,15.80
2022-12-15T08:06:47.817Z,15.70
2022-12-15T08:09:16.388Z,15.90
2022-12-15T08:11:45.005Z,16.00
2022-12-15T08:14:17.698Z,16.20
2022-12-15T08:16:49.298Z,16.30
2022-12-15T08:19:19.199Z,16.30
2022-12-15T08:21:48.586Z,16.40
2022-12-15T08:24:17.774Z,16.50
2022-12-15T08:26:50.070Z,16.60
2022-12-15T08:32:09.845Z,16.80
2022-12-15T08:34:39.271Z,16.90
2022-12-15T08:37:07.921Z,16.90
2022-12-15T08:39:36.792Z,17.00
2022-12-15T08:42:05.854Z,17.00
2022-12-15T08:44:34.663Z,17.10
2022-12-15T08:47:03.324Z,17.20
2022-12-15T08:49:33.351Z,17.10
2022-12-15T08:52:02.148Z,17.00
2022-12-15T08:54:30.928Z,17.00
2022-12-15T08:56:59.584Z,17.00
2022-12-15T08:59:28.442Z,17.00
2022-12-15T09:01:57.388Z,16.90
2022-12-15T09:04:26.256Z,16.90
2022-12-15T09:06:56.479Z,16.80
2022-12-15T09:09:25.253Z,16.90
2022-12-15T09:11:54.020Z,17.20
2022-12-15T09:14:28.911Z,17.30
2022-12-15T09:16:58.264Z,17.40
2022-12-15T09:19:26.997Z,17.40
2022-12-15T09:21:57.048Z,17.40
2022-12-15T09:24:34.384Z,17.40
2022-12-15T09:27:04.554Z,17.40
2022-12-15T09:29:33.538Z,17.50
2022-12-15T09:32:02.264Z,17.50
2022-12-15T09:34:30.859Z,17.40
2022-12-15T09:37:01.056Z,17.40
2022-12-15T09:39:29.709Z,17.40
2022-12-15T09:42:01.835Z,17.40
2022-12-15T09:44:32.774Z,17.40
2022-12-15T09:47:20.014Z,17.30
2022-12-15T09:49:59.407Z,17.50
2022-12-15T09:52:31.494Z,17.60
2022-12-15T09:55:01.931Z,17.70
2022-12-15T09:57:39.131Z,17.60
2022-12-15T10:00:21.369Z,17.70
2022-12-15T10:03:30.602Z,17.80
2022-12-15T10:06:16.607Z,17.70
2022-12-15T10:08:51.049Z,17.70
2022-12-15T10:11:37.447Z,17.70
2022-12-15T10:14:17.000Z,17.90
2022-12-15T10:17:00.687Z,18.00
2022-12-15T10:19:38.424Z,17.80
2022-12-15T10:22:07.433Z,17.90
2022-12-15T10:25:08.568Z,18.20
2022-12-15T10:27:39.850Z,18.30
2022-12-15T10:30:12.684Z,18.30
2022-12-15T10:32:50.932Z,18.30
2022-12-15T10:35:24.257Z,18.30
2022-12-15T10:37:52.935Z,18.50
2022-12-15T10:40:50.495Z,18.60
2022-12-15T10:43:32.696Z,18.50
2022-12-15T10:46:04.900Z,18.60
2022-12-15T10:48:33.792Z,18.60
2022-12-15T10:51:21.740Z,18.60
2022-12-15T10:53:54.792Z,18.60
2022-12-15T10:56:33.296Z,18.60
2022-12-15T10:59:05.227Z,18.60
2022-12-15T11:01:36.010Z,18.50
2022-12-15T11:04:05.206Z,18.40
2022-12-15T11:06:37.083Z,18.40
2022-12-15T11:09:28.456Z,18.50
2022-12-15T11:12:16.504Z,18.60
2022-12-15T11:14:47.855Z,18.60
2022-12-15T11:17:18.676Z,18.70
2022-12-15T11:19:59.983Z,19.20
2022-12-15T11:22:41.567Z,19.40
2022-12-15T11:25:36.748Z,19.40
2022-12-15T11:28:17.257Z,19.50
2022-12-15T11:30:50.714Z,19.70
2022-12-15T11:33:19.601Z,19.70
2022-12-15T11:35:59.995Z,19.70
2022-12-15T11:38:37.490Z,19.50
2022-12-15T11:41:15.319Z,19.40
2022-12-15T11:44:16.223Z,19.20
2022-12-15T11:46:54.811Z,19.10
2022-12-15T11:49:45.602Z,19.10
2022-12-15T11:52:35.452Z,19.10
2022-12-15T11:55:14.112Z,19.00
2022-12-15T11:58:06.525Z,19.00
2022-12-15T12:00:40.624Z,19.00
2022-12-15T12:03:26.628Z,19.00
2022-12-15T12:06:11.029Z,18.80
2022-12-15T12:09:02.106Z,18.70
2022-12-15T12:11:37.008Z,18.80
2022-12-15T12:14:17.929Z,18.70
2022-12-15T12:16:55.609Z,18.80
2022-12-15T12:19:33.288Z,18.80
2022-12-15T12:22:07.360Z,18.70
2022-12-15T12:24:42.787Z,18.80
2022-12-15T12:27:19.344Z,18.80
2022-12-15T12:29:50.468Z,18.70
2022-12-15T12:32:29.396Z,18.70
2022-12-15T12:35:30.724Z,18.50
2022-12-15T12:38:03.351Z,18.20
2022-12-15T12:40:42.619Z,18.10
2022-12-15T12:43:14.541Z,17.90
2022-12-15T12:45:50.852Z,17.80
2022-12-15T12:48:25.357Z,17.80
2022-12-15T12:51:15.275Z,17.70
2022-12-15T12:53:44.044Z,17.70
2022-12-15T12:56:41.492Z,17.60
2022-12-15T12:59:38.980Z,17.60
2022-12-15T13:02:45.648Z,17.50
2022-12-15T13:05:32.365Z,17.50
2022-12-15T13:08:27.360Z,17.50
2022-12-15T13:10:56.919Z,17.50
2022-12-15T13:13:51.033Z,17.40
2022-12-15T13:16:26.857Z,17.50
2022-12-15T13:19:02.187Z,17.60
2022-12-15T13:21:55.207Z,17.70
2022-12-15T13:24:35.099Z,17.60
2022-12-15T13:27:15.520Z,17.60
2022-12-15T13:30:01.456Z,17.70
2022-12-15T13:32:35.258Z,17.70
2022-12-15T13:35:24.150Z,17.70
2022-12-15T13:37:55.982Z,17.70
2022-12-15T13:40:54.124Z,17.80
2022-12-15T13:43:42.759Z,17.80
2022-12-15T13:46:17.095Z,17.80
2022-12-15T13:48:49.313Z,17.70
2022-12-15T13:51:30.719Z,17.70
2022-12-15T13:54:04.100Z,17.70
2022-12-15T13:56:59.488Z,17.60
2022-12-15T13:59:32.821Z,17.60
2022-12-15T14:02:02.106Z,17.60
2022-12-15T14:04:30.772Z,17.70
2022-12-15T14:07:02.553Z,17.60
2022-12-15T14:09:34.003Z,17.60
2022-12-15T14:12:07.043Z,17.60
2022-12-15T14:14:38.199Z,17.60
2022-12-15T14:17:10.472Z,17.50
2022-12-15T14:19:41.535Z,17.50
2022-12-15T14:22:27.558Z,17.60
2022-12-15T14:25:02.925Z,17.50
2022-12-15T14:27:35.065Z,17.50
2022-12-15T14:30:24.891Z,17.50
2022-12-15T14:32:59.040Z,17.50
2022-12-15T14:35:32.011Z,17.50
2022-12-15T14:38:04.970Z,17.50
2022-12-15T14:40:36.973Z,17.50
2022-12-15T14:43:12.882Z,17.50
2022-12-15T14:45:41.861Z,17.60
2022-12-15T14:48:39.849Z,17.60
2022-12-15T14:51:02.576Z,17.50
2022-12-15T14:53:35.004Z,17.60
2022-12-15T14:56:30.176Z,17.60
2022-12-15T14:59:04.082Z,17.60
2022-12-15T15:01:40.262Z,17.40
2022-12-15T15:04:26.309Z,17.40
2022-12-15T15:06:56.623Z,17.40
2022-12-15T15:09:27.241Z,17.30
2022-12-15T15:11:58.116Z,17.30
2022-12-15T15:14:31.921Z,17.30
2022-12-15T15:17:04.728Z,17.30
2022-12-15T15:19:39.321Z,17.20
2022-12-15T15:22:21.932Z,17.10
2022-12-15T15:24:53.114Z,17.00
2022-12-15T15:27:32.898Z,17.10
2022-12-15T15:30:19.841Z,17.20
2022-12-15T15:32:54.124Z,17.10
2022-12-15T15:35:24.119Z,17.20
2022-12-15T15:37:54.471Z,17.20
2022-12-15T15:40:24.088Z,17.20
2022-12-15T15:42:52.705Z,17.20
2022-12-15T15:45:23.254Z,17.20
2022-12-15T15:47:56.183Z,17.20
2022-12-15T15:50:30.265Z,17.20
2022-12-15T15:52:59.603Z,17.20
2022-12-15T15:55:39.458Z,17.20
2022-12-15T15:58:12.954Z,17.10
2022-12-15T16:00:43.819Z,17.10
2022-12-15T16:03:12.779Z,17.00
2022-12-15T16:05:41.980Z,16.90
2022-12-15T16:08:16.898Z,16.90
2022-12-15T16:10:48.548Z,16.90
2022-12-15T16:13:25.497Z,16.90
2022-12-15T16:15:56.984Z,17.00
2022-12-15T16:18:25.722Z,17.00
2022-12-15T16:20:54.552Z,17.00
2022-12-15T16:23:26.442Z,17.00
2022-12-15T16:25:57.775Z,16.90
2022-12-15T16:28:28.247Z,16.90
2022-12-15T16:30:59.972Z,16.90
2022-12-15T16:33:32.028Z,16.80
2022-12-15T16:36:00.705Z,16.80
2022-12-15T16:38:31.485Z,16.80
2022-12-15T16:41:07.780Z,16.60
2022-12-15T16:43:41.531Z,16.60
2022-12-15T16:46:16.714Z,16.60
2022-12-15T16:48:45.561Z,16.50
2022-12-15T16:51:28.610Z,16.50
2022-12-15T16:53:57.280Z,16.60
2022-12-15T16:56:26.178Z,16.60
2022-12-15T16:59:08.850Z,16.50
2022-12-15T17:01:48.387Z,16.60
2022-12-15T17:04:17.633Z,16.70
2022-12-15T17:06:49.439Z,16.60
2022-12-15T17:09:23.311Z,16.60
2022-12-15T17:11:52.518Z,16.60
2022-12-15T17:14:21.101Z,16.60
2022-12-15T17:16:52.110Z,16.60
2022-12-15T17:19:21.487Z,16.60
2022-12-15T17:21:53.857Z,16.60
2022-12-15T17:24:23.838Z,16.50
2022-12-15T17:26:52.660Z,16.40
2022-12-15T17:29:24.012Z,16.30
2022-12-15T17:31:55.079Z,16.40
2022-12-15T17:34:31.114Z,16.30
2022-12-15T17:37:01.577Z,16.30
2022-12-15T17:39:31.207Z,16.10
2022-12-15T17:42:01.819Z,16.10
2022-12-15T17:44:35.440Z,16.10
2022-12-15T17:47:08.130Z,16.10
2022-12-15T17:49:39.247Z,16.20
2022-12-15T17:52:18.075Z,16.30
2022-12-15T17:54:47.065Z,16.30
2022-12-15T17:57:18.128Z,16.20
2022-12-15T17:59:46.941Z,16.20
2022-12-15T18:02:17.207Z,16.10
2022-12-15T18:04:46.414Z,16.10
2022-12-15T18:07:18.975Z,16.10
2022-12-15T18:09:49.419Z,16.00
2022-12-15T18:12:21.347Z,16.00
2022-12-15T18:14:51.085Z,16.00
2022-12-15T18:17:21.196Z,16.00
2022-12-15T18:19:49.857Z,15.90
2022-12-15T18:22:22.805Z,15.90
2022-12-15T18:24:54.027Z,15.80
2022-12-15T18:27:27.080Z,15.80
2022-12-15T18:29:56.774Z,15.70
2022-12-15T18:32:29.998Z,15.60
2022-12-15T18:35:01.205Z,15.50
2022-12-15T18:37:31.164Z,15.50
2022-12-15T18:40:04.451Z,15.40
2022-12-15T18:42:35.255Z,15.40
2022-12-15T18:45:05.239Z,15.50
2022-12-15T18:47:36.579Z,15.50
2022-12-15T18:50:05.585Z,15.50
2022-12-15T18:52:34.975Z,15.50
2022-12-15T18:55:03.947Z,15.50
2022-12-15T18:57:36.063Z,15.50
2022-12-15T19:00:17.808Z,15.50
2022-12-15T19:02:49.892Z,15.50
2022-12-15T19:05:32.767Z,15.50
2022-12-15T19:08:05.344Z,15.50
2022-12-15T19:10:35.503Z,15.50
2022-12-15T19:13:04.178Z,15.50
2022-12-15T19:15:32.840Z,15.50
2022-12-15T19:18:20.443Z,15.50
2022-12-15T19:21:06.621Z,15.40
2022-12-15T19:23:35.719Z,15.40
2022-12-15T19:26:04.574Z,15.40
2022-12-15T19:28:33.592Z,15.40
2022-12-15T19:31:02.281Z,15.40
2022-12-15T19:33:32.591Z,15.40
2022-12-15T19:36:01.591Z,15.30
2022-12-15T19:38:33.587Z,15.30
2022-12-15T19:41:02.274Z,15.30
2022-12-15T19:43:31.420Z,15.30
2022-12-15T19:46:00.509Z,15.30
2022-12-15T19:48:29.493Z,15.30
2022-12-15T19:51:00.502Z,15.40
2022-12-15T19:53:31.095Z,15.40
2022-12-15T19:56:01.872Z,15.40
2022-12-15T19:58:32.751Z,15.40
2022-12-15T20:01:03.140Z,15.40
2022-12-15T20:03:32.802Z,15.30
2022-12-15T20:06:04.142Z,15.30
2022-12-15T20:08:37.372Z,15.30
2022-12-15T20:11:10.876Z,15.30
2022-12-15T20:13:39.548Z,15.30
2022-12-15T20:16:09.249Z,15.30
2022-12-15T20:18:38.094Z,15.30
2022-12-15T20:21:10.083Z,15.30
2022-12-15T20:23:49.460Z,15.30
2022-12-15T20:26:18.410Z,15.30
2022-12-15T20:28:47.177Z,15.20
2022-12-15T20:31:18.042Z,15.20
2022-12-15T20:33:47.445Z,15.30
2022-12-15T20:36:20.428Z,15.40
2022-12-15T20:38:49.840Z,15.40
2022-12-15T20:41:19.980Z,15.50
2022-12-15T20:43:49.044Z,15.50
2022-12-15T20:46:21.202Z,15.60
2022-12-15T20:48:51.920Z,15.60
2022-12-15T20:51:25.292Z,15.60
2022-12-15T20:53:56.334Z,15.60
2022-12-15T20:56:25.587Z,15.60
2022-12-15T20:58:55.334Z,15.70
2022-12-15T21:01:26.209Z,15.70
2022-12-15T21:03:57.658Z,15.70
2022-12-15T21:06:29.496Z,15.70
2022-12-15T21:08:59.223Z,15.70
2022-12-15T21:11:29.923Z,15.60
2022-12-15T21:14:04.208Z,15.70
2022-12-15T21:16:33.939Z,15.70
2022-12-15T21:19:19.891Z,15.70
2022-12-15T21:21:56.049Z,15.70
2022-12-15T21:24:26.531Z,15.70
2022-12-15T21:26:55.421Z,15.70
2022-12-15T21:29:26.528Z,15.80
2022-12-15T21:31:55.215Z,15.80
2022-12-15T21:34:23.836Z,15.80
2022-12-15T21:36:55.609Z,15.80
2022-12-15T21:39:29.739Z,15.90
2022-12-15T21:42:00.955Z,15.90
2022-12-15T21:44:29.614Z,15.80
2022-12-15T21:46:58.623Z,15.90
2022-12-15T21:49:27.136Z,15.90
2022-12-15T21:51:59.249Z,15.90
2022-12-15T21:54:31.622Z,15.90
2022-12-15T21:57:00.894Z,15.90
2022-12-15T21:59:31.700Z,15.90
2022-12-15T22:02:01.981Z,15.90
2022-12-15T22:04:34.431Z,15.90
2022-12-15T22:07:04.595Z,15.90
2022-12-15T22:09:33.488Z,15.80
2022-12-15T22:12:02.263Z,15.80
2022-12-15T22:14:33.060Z,15.80
2022-12-15T22:17:07.308Z,15.80
2022-12-15T22:19:35.968Z,15.70
2022-12-15T22:22:06.025Z,15.70
2022-12-15T22:24:35.340Z,15.70
2022-12-15T22:27:04.161Z,15.70
2022-12-15T22:29:33.872Z,15.60
2022-12-15T22:32:03.080Z,15.60
2022-12-15T22:34:32.111Z,15.60
2022-12-15T22:37:00.725Z,15.60
2022-12-15T22:39:30.774Z,15.70
2022-12-15T22:41:59.958Z,15.70
2022-12-15T22:44:32.221Z,15.70
2022-12-15T22:47:02.760Z,15.80
2022-12-15T22:49:33.736Z,15.80
2022-12-15T22:52:02.639Z,15.90
2022-12-15T22:54:33.240Z,15.80
2022-12-15T22:57:04.372Z,15.80
2022-12-15T22:59:37.339Z,15.80
2022-12-15T23:02:06.127Z,15.80
2022-12-15T23:04:35.220Z,15.70
2022-12-15T23:07:06.411Z,15.80
2022-12-15T23:09:36.529Z,15.80
2022-12-15T23:12:04.420Z,15.80
2022-12-15T23:14:49.635Z,15.70
2022-12-15T23:17:20.805Z,15.80
2022-12-15T23:19:49.470Z,15.80
2022-12-15T23:22:18.063Z,15.70
2022-12-15T23:24:48.104Z,15.70
2022-12-15T23:27:16.860Z,15.60
2022-12-15T23:29:45.523Z,15.60
2022-12-15T23:32:14.163Z,15.70
2022-12-15T23:34:43.067Z,15.70
2022-12-15T23:37:12.107Z,15.60
2022-12-15T23:39:40.695Z,15.70
2022-12-15T23:42:11.106Z,15.60
2022-12-15T23:44:39.948Z,15.70
2022-12-15T23:47:09.305Z,15.60
2022-12-15T23:49:38.039Z,15.60
2022-12-15T23:52:06.927Z,15.60
2022-12-15T23:54:35.601Z,15.50
2022-12-15T23:57:04.743Z,15.50
2022-12-15T23:59:35.112Z,15.50
